Joseph Sause — WTW9258 — position and weather

sailwx.info

Track history (hours):
 
Tides and Currents Weather Stations Pressure Air Temp Water Temp Dewpoint Dewpoint Depression Visibility Wind Speed Wind Dir Waves Ship Positions

Joseph Sause

Owner: Sause Bros. Inc., COOS BAY, OR. More information available from US FCC via Universal Licensing System and Coast Guard Vessel Documentation Center.

Last reported at 2018-Apr-21 12:37 UTC. Time now 2018-Apr-22 18:17 UTC.
Position N 47°16' W 122°22'.

Type: Tow > 200 m length. MMSI: 367007880.

Date/timePositionNaut miles runAvg speedWind from/ knotsBaromVisibWave heightAir tempDewpointWater temp
2018-Apr-21 12:37N 47°16' W 122°22'2 0.1
2018-Apr-19 17:09N 47°17' W 122°25'1 9.6
2018-Apr-19 17:00N 47°18' W 122°27'3 5.8
2018-Apr-19 16:30N 47°21' W 122°26'611.0
2018-Apr-19 16:00N 47°26' W 122°22'612.0
2018-Apr-19 15:30N 47°31' W 122°25'5 9.3
2018-Apr-19 15:00N 47°36' W 122°23'1 2.0
2018-Apr-19 14:30N 47°35' W 122°21'0 0.0
2018-Apr-19 14:00N 47°35' W 122°21'0 0.1
2018-Apr-19 13:30N 47°35' W 122°21'3 6.4
2018-Apr-19 13:00N 47°35' W 122°26'4 7.9
2018-Apr-19 12:30N 47°31' W 122°25'4 8.3
2018-Apr-19 12:00N 47°27' W 122°23'5 9.3
2018-Apr-19 11:30N 47°23' W 122°21'611.2
2018-Apr-19 11:00N 47°19' W 122°27'4 7.1
2018-Apr-19 10:29N 47°16' W 122°23'1 0.0
2018-Apr-17 08:20N 47°17' W 122°24'1 3.9
2018-Apr-17 07:59N 47°17' W 122°25'1 1.2
2018-Apr-17 07:30N 47°17' W 122°26'2 4.4
2018-Apr-17 07:00N 47°19' W 122°28'4 8.8
2018-Apr-17 06:30N 47°22' W 122°24'4 7.2
2018-Apr-17 06:00N 47°26' W 122°24'5 9.1
2018-Apr-17 05:30N 47°30' W 122°26'5 9.3
2018-Apr-17 05:01N 47°34' W 122°28'5 9.5
2018-Apr-17 04:30N 47°39' W 122°29'5 9.1
2018-Apr-17 04:00N 47°44' W 122°28'5 9.1
2018-Apr-17 03:30N 47°48' W 122°28'5 9.5
2018-Apr-17 03:00N 47°53' W 122°29'28 8.9
2018-Apr-16 23:53N 48°18' W 122°48'4 9.5
2018-Apr-16 23:30N 48°21' W 122°46'5 8.9
2018-Apr-16 22:58N 48°26' W 122°45'4 8.1
2018-Apr-16 22:30N 48°29' W 122°44'4 6.8
2018-Apr-16 21:59N 48°31' W 122°39'3 6.1
2018-Apr-16 21:31N 48°31' W 122°35'1 0.0
2018-Apr-15 08:45N 48°31' W 122°35'0 0.4
2018-Apr-15 08:23N 48°31' W 122°35'0 0.1
2018-Apr-15 07:00N 48°31' W 122°35'0 0.0
2018-Apr-15 06:18N 48°31' W 122°35'0 0.0
2018-Apr-15 05:51N 48°31' W 122°35'0 0.0
2018-Apr-15 04:12N 48°31' W 122°35'0 0.0
2018-Apr-15 02:08N 48°31' W 122°35'0 0.0
2018-Apr-15 01:58N 48°31' W 122°35'0 0.0
2018-Apr-15 01:30N 48°31' W 122°35'0 0.0
2018-Apr-15 00:13N 48°31' W 122°35'0 0.0
2018-Apr-14 23:54N 48°31' W 122°35'0 0.0
2018-Apr-14 23:22N 48°31' W 122°35'0 0.0
2018-Apr-14 23:00N 48°31' W 122°35'0 0.0
2018-Apr-14 22:29N 48°31' W 122°35'0 0.0
2018-Apr-14 22:00N 48°31' W 122°35'0 0.0
2018-Apr-14 21:30N 48°31' W 122°35'0 0.0
2018-Apr-14 21:00N 48°31' W 122°35'0 0.1
2018-Apr-14 20:24N 48°31' W 122°35'0 0.0
2018-Apr-14 19:45N 48°31' W 122°35'0 0.4
2018-Apr-14 19:30N 48°31' W 122°35'0 0.9
2018-Apr-14 18:58N 48°31' W 122°35'1 3.2
2018-Apr-14 18:30N 48°31' W 122°37'3 6.8
2018-Apr-14 18:00N 48°31' W 122°42'3 6.3
2018-Apr-14 17:31N 48°28' W 122°44'3 5.3
2018-Apr-14 16:58N 48°25' W 122°44'2 5.2
2018-Apr-14 16:30N 48°23' W 122°44'3 5.1
2018-Apr-14 15:56N 48°20' W 122°46'2 4.6
2018-Apr-14 15:29N 48°18' W 122°46'23 7.0
2018-Apr-14 12:11N 47°57' W 122°31'2 8.7
2018-Apr-14 12:00N 47°56' W 122°30'4 8.4
2018-Apr-14 11:30N 47°52' W 122°28'5 9.3
2018-Apr-14 11:01N 47°48' W 122°26'5 9.3
2018-Apr-14 10:30N 47°43' W 122°26'4 8.8
2018-Apr-14 10:00N 47°39' W 122°27'5 9.2
2018-Apr-14 09:31N 47°34' W 122°26'5 9.0
2018-Apr-14 09:00N 47°30' W 122°24'4 8.8
2018-Apr-14 08:31N 47°25' W 122°22'4 7.4
2018-Apr-14 08:00N 47°22' W 122°22'4 8.8
2018-Apr-14 07:31N 47°19' W 122°27'2 4.3
2018-Apr-14 07:00N 47°17' W 122°26'2 0.2
2018-Apr-13 22:28N 47°16' W 122°24'0 0.0
2018-Apr-13 21:59N 47°16' W 122°24'0 0.0
2018-Apr-13 21:11N 47°16' W 122°24'0 0.0
2018-Apr-13 20:50N 47°16' W 122°24'0 0.0
2018-Apr-13 20:29N 47°16' W 122°24'0 0.0
2018-Apr-13 19:17N 47°16' W 122°24'0 0.0
2018-Apr-13 16:37N 47°16' W 122°24'0 0.0
2018-Apr-13 15:49N 47°16' W 122°24'0 0.0
2018-Apr-13 15:25N 47°16' W 122°24'0 0.0
2018-Apr-13 14:59N 47°16' W 122°24'0 0.0
2018-Apr-13 14:30N 47°16' W 122°24'0 0.1
2018-Apr-13 13:59N 47°16' W 122°24'0 0.0
2018-Apr-13 13:25N 47°16' W 122°24'1 2.8
2018-Apr-13 13:00N 47°17' W 122°25'0 0.9
2018-Apr-13 12:31N 47°17' W 122°26'3 6.0
2018-Apr-13 12:00N 47°20' W 122°27'5 9.8
2018-Apr-13 11:30N 47°23' W 122°22'5 9.7
2018-Apr-13 11:00N 47°27' W 122°25'5 9.3
2018-Apr-13 10:30N 47°32' W 122°26'4 8.7
2018-Apr-13 10:01N 47°36' W 122°24'2 4.8
2018-Apr-13 09:30N 47°35' W 122°21'0 0.0
2018-Apr-13 08:54N 47°35' W 122°21'0 0.0
2018-Apr-13 08:30N 47°35' W 122°21'0 0.0
2018-Apr-13 08:00N 47°35' W 122°21'0 0.0
2018-Apr-13 07:30N 47°35' W 122°21'0 0.0
2018-Apr-13 07:00N 47°35' W 122°21'0 0.0
2018-Apr-13 06:30N 47°35' W 122°21'0 0.0
2018-Apr-13 06:00N 47°35' W 122°21'0 0.0
2018-Apr-13 05:30N 47°35' W 122°21'0 0.0
2018-Apr-13 05:00N 47°35' W 122°21'0 0.0
2018-Apr-13 04:30N 47°35' W 122°21'0 0.0
2018-Apr-13 04:00N 47°35' W 122°21'0 0.0
2018-Apr-13 03:30N 47°35' W 122°21'0 0.0
2018-Apr-13 03:00N 47°35' W 122°21'0 0.0
2018-Apr-13 02:30N 47°35' W 122°21'0 0.0
2018-Apr-13 02:00N 47°35' W 122°21'0 0.0
2018-Apr-13 01:30N 47°35' W 122°21'0 0.0
2018-Apr-13 01:00N 47°35' W 122°21'0 0.0
2018-Apr-13 00:30N 47°35' W 122°21'0 0.0
2018-Apr-13 00:00N 47°35' W 122°21'0 0.0
2018-Apr-12 23:30N 47°35' W 122°21'0 0.0
2018-Apr-12 23:00N 47°35' W 122°21'0 0.0
2018-Apr-12 22:30N 47°35' W 122°21'0 0.0
2018-Apr-12 22:00N 47°35' W 122°21'0 0.0
2018-Apr-12 21:30N 47°35' W 122°21'0 0.0
2018-Apr-12 21:00N 47°35' W 122°21'0 0.0
2018-Apr-12 20:30N 47°35' W 122°21'0 0.0
2018-Apr-12 20:00N 47°35' W 122°21'0 0.0
2018-Apr-12 19:30N 47°35' W 122°21'0 0.0
2018-Apr-12 19:00N 47°35' W 122°21'0 0.0
2018-Apr-12 18:30N 47°35' W 122°21'0 0.0
2018-Apr-12 18:00N 47°35' W 122°21'0 0.0
2018-Apr-12 17:30N 47°35' W 122°21'0 0.0
2018-Apr-12 17:00N 47°35' W 122°21'0 0.0
2018-Apr-12 16:30N 47°35' W 122°21'0 0.0
2018-Apr-12 16:00N 47°35' W 122°21'0 0.0
2018-Apr-12 15:30N 47°35' W 122°21'0 0.0
2018-Apr-12 15:00N 47°35' W 122°21'0 0.0
2018-Apr-12 14:30N 47°35' W 122°21'0 0.0
2018-Apr-12 14:00N 47°35' W 122°21'0 0.0
2018-Apr-12 13:30N 47°35' W 122°21'0 0.0
2018-Apr-12 13:00N 47°35' W 122°21'0 0.0
2018-Apr-12 12:30N 47°35' W 122°21'0 0.0
2018-Apr-12 12:00N 47°35' W 122°21'0 0.0
2018-Apr-12 11:30N 47°35' W 122°21'0 0.0
2018-Apr-12 10:54N 47°35' W 122°21'0 0.0
2018-Apr-12 10:30N 47°35' W 122°21'0 0.0
2018-Apr-12 09:57N 47°35' W 122°21'0 0.0
2018-Apr-12 09:30N 47°35' W 122°21'0 0.0
2018-Apr-12 09:00N 47°35' W 122°21'0 0.0
2018-Apr-12 08:30N 47°35' W 122°21'0 0.0
2018-Apr-12 08:00N 47°35' W 122°21'0 0.0
2018-Apr-12 07:30N 47°35' W 122°21'0 0.0
2018-Apr-12 07:00N 47°35' W 122°21'0 0.0
2018-Apr-12 06:30N 47°35' W 122°21'0 0.0
2018-Apr-12 06:00N 47°35' W 122°21'0 0.0
2018-Apr-12 05:30N 47°35' W 122°21'0 0.0
2018-Apr-12 05:00N 47°35' W 122°21'0 0.0
2018-Apr-12 04:30N 47°35' W 122°21'0 0.0
2018-Apr-12 04:00N 47°35' W 122°21'0 0.0
2018-Apr-12 03:30N 47°35' W 122°21'0 0.0
2018-Apr-12 03:00N 47°35' W 122°21'0 0.0
2018-Apr-12 02:30N 47°35' W 122°21'0 0.0
2018-Apr-12 01:57N 47°35' W 122°21'0 0.0
2018-Apr-12 01:30N 47°35' W 122°21'0 0.0
2018-Apr-12 01:00N 47°35' W 122°21'0 0.0
2018-Apr-12 00:30N 47°35' W 122°21'0 0.0
2018-Apr-11 23:59N 47°35' W 122°21'0 0.0
2018-Apr-11 23:30N 47°35' W 122°21'0 0.0
2018-Apr-11 23:00N 47°35' W 122°21'0 0.0
2018-Apr-11 22:30N 47°35' W 122°21'0 0.1
2018-Apr-11 22:00N 47°35' W 122°21'0 0.0
2018-Apr-11 21:30N 47°35' W 122°21'0 0.1
2018-Apr-11 21:00N 47°35' W 122°21'0 0.1
2018-Apr-11 20:30N 47°35' W 122°21'0 0.8
2018-Apr-11 20:01N 47°36' W 122°21'3 5.6
2018-Apr-11 19:30N 47°37' W 122°25'3 6.3
2018-Apr-11 19:00N 47°39' W 122°28'4 7.8
2018-Apr-11 18:30N 47°43' W 122°27'4 7.6
2018-Apr-11 18:00N 47°47' W 122°27'4 8.2
2018-Apr-11 17:30N 47°51' W 122°28'4 8.1
2018-Apr-11 17:00N 47°55' W 122°30'18 6.4
2018-Apr-11 14:12N 48°09' W 122°45'1 6.3
2018-Apr-11 14:00N 48°10' W 122°47'4 6.2
2018-Apr-11 13:22N 48°14' W 122°49'4 8.3
2018-Apr-11 12:52N 48°18' W 122°47'  
Track history (hours):
 
Tides and Currents Weather Stations Pressure Air Temp Water Temp Dewpoint Dewpoint Depression Visibility Wind Speed Wind Dir Waves Ship Positions

Joseph Sause

Owner: Sause Bros. Inc., COOS BAY, OR. More information available from US FCC via Universal Licensing System and Coast Guard Vessel Documentation Center.

Last reported at 2018-Apr-21 12:37 UTC. Time now 2018-Apr-22 18:17 UTC.
Position N 47°16' W 122°22'.

Type: Tow > 200 m length. MMSI: 367007880.

Date/timePositionNaut miles runAvg speedWind from/ knotsBaromVisibWave heightAir tempDewpointWater temp
2018-Apr-21 12:37N 47°16' W 122°22'2 0.1
2018-Apr-19 17:09N 47°17' W 122°25'1 9.6
2018-Apr-19 17:00N 47°18' W 122°27'3 5.8
2018-Apr-19 16:30N 47°21' W 122°26'611.0
2018-Apr-19 16:00N 47°26' W 122°22'612.0
2018-Apr-19 15:30N 47°31' W 122°25'5 9.3
2018-Apr-19 15:00N 47°36' W 122°23'1 2.0
2018-Apr-19 14:30N 47°35' W 122°21'0 0.0
2018-Apr-19 14:00N 47°35' W 122°21'0 0.1
2018-Apr-19 13:30N 47°35' W 122°21'3 6.4
2018-Apr-19 13:00N 47°35' W 122°26'4 7.9
2018-Apr-19 12:30N 47°31' W 122°25'4 8.3
2018-Apr-19 12:00N 47°27' W 122°23'5 9.3
2018-Apr-19 11:30N 47°23' W 122°21'611.2
2018-Apr-19 11:00N 47°19' W 122°27'4 7.1
2018-Apr-19 10:29N 47°16' W 122°23'1 0.0
2018-Apr-17 08:20N 47°17' W 122°24'1 3.9
2018-Apr-17 07:59N 47°17' W 122°25'1 1.2
2018-Apr-17 07:30N 47°17' W 122°26'2 4.4
2018-Apr-17 07:00N 47°19' W 122°28'4 8.8
2018-Apr-17 06:30N 47°22' W 122°24'4 7.2
2018-Apr-17 06:00N 47°26' W 122°24'5 9.1
2018-Apr-17 05:30N 47°30' W 122°26'5 9.3
2018-Apr-17 05:01N 47°34' W 122°28'5 9.5
2018-Apr-17 04:30N 47°39' W 122°29'5 9.1
2018-Apr-17 04:00N 47°44' W 122°28'5 9.1
2018-Apr-17 03:30N 47°48' W 122°28'5 9.5
2018-Apr-17 03:00N 47°53' W 122°29'28 8.9
2018-Apr-16 23:53N 48°18' W 122°48'4 9.5
2018-Apr-16 23:30N 48°21' W 122°46'5 8.9
2018-Apr-16 22:58N 48°26' W 122°45'4 8.1
2018-Apr-16 22:30N 48°29' W 122°44'4 6.8
2018-Apr-16 21:59N 48°31' W 122°39'3 6.1
2018-Apr-16 21:31N 48°31' W 122°35'1 0.0
2018-Apr-15 08:45N 48°31' W 122°35'0 0.4
2018-Apr-15 08:23N 48°31' W 122°35'0 0.1
2018-Apr-15 07:00N 48°31' W 122°35'0 0.0
2018-Apr-15 06:18N 48°31' W 122°35'0 0.0
2018-Apr-15 05:51N 48°31' W 122°35'0 0.0
2018-Apr-15 04:12N 48°31' W 122°35'0 0.0
2018-Apr-15 02:08N 48°31' W 122°35'0 0.0
2018-Apr-15 01:58N 48°31' W 122°35'0 0.0
2018-Apr-15 01:30N 48°31' W 122°35'0 0.0
2018-Apr-15 00:13N 48°31' W 122°35'0 0.0
2018-Apr-14 23:54N 48°31' W 122°35'0 0.0
2018-Apr-14 23:22N 48°31' W 122°35'0 0.0
2018-Apr-14 23:00N 48°31' W 122°35'0 0.0
2018-Apr-14 22:29N 48°31' W 122°35'0 0.0
2018-Apr-14 22:00N 48°31' W 122°35'0 0.0
2018-Apr-14 21:30N 48°31' W 122°35'0 0.0
2018-Apr-14 21:00N 48°31' W 122°35'0 0.1
2018-Apr-14 20:24N 48°31' W 122°35'0 0.0
2018-Apr-14 19:45N 48°31' W 122°35'0 0.4
2018-Apr-14 19:30N 48°31' W 122°35'0 0.9
2018-Apr-14 18:58N 48°31' W 122°35'1 3.2
2018-Apr-14 18:30N 48°31' W 122°37'3 6.8
2018-Apr-14 18:00N 48°31' W 122°42'3 6.3
2018-Apr-14 17:31N 48°28' W 122°44'3 5.3
2018-Apr-14 16:58N 48°25' W 122°44'2 5.2
2018-Apr-14 16:30N 48°23' W 122°44'3 5.1
2018-Apr-14 15:56N 48°20' W 122°46'2 4.6
2018-Apr-14 15:29N 48°18' W 122°46'23 7.0
2018-Apr-14 12:11N 47°57' W 122°31'2 8.7
2018-Apr-14 12:00N 47°56' W 122°30'4 8.4
2018-Apr-14 11:30N 47°52' W 122°28'5 9.3
2018-Apr-14 11:01N 47°48' W 122°26'5 9.3
2018-Apr-14 10:30N 47°43' W 122°26'4 8.8
2018-Apr-14 10:00N 47°39' W 122°27'5 9.2
2018-Apr-14 09:31N 47°34' W 122°26'5 9.0
2018-Apr-14 09:00N 47°30' W 122°24'4 8.8
2018-Apr-14 08:31N 47°25' W 122°22'4 7.4
2018-Apr-14 08:00N 47°22' W 122°22'4 8.8
2018-Apr-14 07:31N 47°19' W 122°27'2 4.3
2018-Apr-14 07:00N 47°17' W 122°26'2 0.2
2018-Apr-13 22:28N 47°16' W 122°24'0 0.0
2018-Apr-13 21:59N 47°16' W 122°24'0 0.0
2018-Apr-13 21:11N 47°16' W 122°24'0 0.0
2018-Apr-13 20:50N 47°16' W 122°24'0 0.0
2018-Apr-13 20:29N 47°16' W 122°24'0 0.0
2018-Apr-13 19:17N 47°16' W 122°24'0 0.0
2018-Apr-13 16:37N 47°16' W 122°24'0 0.0
2018-Apr-13 15:49N 47°16' W 122°24'0 0.0
2018-Apr-13 15:25N 47°16' W 122°24'0 0.0
2018-Apr-13 14:59N 47°16' W 122°24'0 0.0
2018-Apr-13 14:30N 47°16' W 122°24'0 0.1
2018-Apr-13 13:59N 47°16' W 122°24'0 0.0
2018-Apr-13 13:25N 47°16' W 122°24'1 2.8
2018-Apr-13 13:00N 47°17' W 122°25'0 0.9
2018-Apr-13 12:31N 47°17' W 122°26'3 6.0
2018-Apr-13 12:00N 47°20' W 122°27'5 9.8
2018-Apr-13 11:30N 47°23' W 122°22'5 9.7
2018-Apr-13 11:00N 47°27' W 122°25'5 9.3
2018-Apr-13 10:30N 47°32' W 122°26'4 8.7
2018-Apr-13 10:01N 47°36' W 122°24'2 4.8
2018-Apr-13 09:30N 47°35' W 122°21'0 0.0
2018-Apr-13 08:54N 47°35' W 122°21'0 0.0
2018-Apr-13 08:30N 47°35' W 122°21'0 0.0
2018-Apr-13 08:00N 47°35' W 122°21'0 0.0
2018-Apr-13 07:30N 47°35' W 122°21'0 0.0
2018-Apr-13 07:00N 47°35' W 122°21'0 0.0
2018-Apr-13 06:30N 47°35' W 122°21'0 0.0
2018-Apr-13 06:00N 47°35' W 122°21'0 0.0
2018-Apr-13 05:30N 47°35' W 122°21'0 0.0
2018-Apr-13 05:00N 47°35' W 122°21'0 0.0
2018-Apr-13 04:30N 47°35' W 122°21'0 0.0
2018-Apr-13 04:00N 47°35' W 122°21'0 0.0
2018-Apr-13 03:30N 47°35' W 122°21'0 0.0
2018-Apr-13 03:00N 47°35' W 122°21'0 0.0
2018-Apr-13 02:30N 47°35' W 122°21'0 0.0
2018-Apr-13 02:00N 47°35' W 122°21'0 0.0
2018-Apr-13 01:30N 47°35' W 122°21'0 0.0
2018-Apr-13 01:00N 47°35' W 122°21'0 0.0
2018-Apr-13 00:30N 47°35' W 122°21'0 0.0
2018-Apr-13 00:00N 47°35' W 122°21'0 0.0
2018-Apr-12 23:30N 47°35' W 122°21'0 0.0
2018-Apr-12 23:00N 47°35' W 122°21'0 0.0
2018-Apr-12 22:30N 47°35' W 122°21'0 0.0
2018-Apr-12 22:00N 47°35' W 122°21'0 0.0
2018-Apr-12 21:30N 47°35' W 122°21'0 0.0
2018-Apr-12 21:00N 47°35' W 122°21'0 0.0
2018-Apr-12 20:30N 47°35' W 122°21'0 0.0
2018-Apr-12 20:00N 47°35' W 122°21'0 0.0
2018-Apr-12 19:30N 47°35' W 122°21'0 0.0
2018-Apr-12 19:00N 47°35' W 122°21'0 0.0
2018-Apr-12 18:30N 47°35' W 122°21'0 0.0
2018-Apr-12 18:00N 47°35' W 122°21'0 0.0
2018-Apr-12 17:30N 47°35' W 122°21'0 0.0
2018-Apr-12 17:00N 47°35' W 122°21'0 0.0
2018-Apr-12 16:30N 47°35' W 122°21'0 0.0
2018-Apr-12 16:00N 47°35' W 122°21'0 0.0
2018-Apr-12 15:30N 47°35' W 122°21'0 0.0
2018-Apr-12 15:00N 47°35' W 122°21'0 0.0
2018-Apr-12 14:30N 47°35' W 122°21'0 0.0
2018-Apr-12 14:00N 47°35' W 122°21'0 0.0
2018-Apr-12 13:30N 47°35' W 122°21'0 0.0
2018-Apr-12 13:00N 47°35' W 122°21'0 0.0
2018-Apr-12 12:30N 47°35' W 122°21'0 0.0
2018-Apr-12 12:00N 47°35' W 122°21'0 0.0
2018-Apr-12 11:30N 47°35' W 122°21'0 0.0
2018-Apr-12 10:54N 47°35' W 122°21'0 0.0
2018-Apr-12 10:30N 47°35' W 122°21'0 0.0
2018-Apr-12 09:57N 47°35' W 122°21'0 0.0
2018-Apr-12 09:30N 47°35' W 122°21'0 0.0
2018-Apr-12 09:00N 47°35' W 122°21'0 0.0
2018-Apr-12 08:30N 47°35' W 122°21'0 0.0
2018-Apr-12 08:00N 47°35' W 122°21'0 0.0
2018-Apr-12 07:30N 47°35' W 122°21'0 0.0
2018-Apr-12 07:00N 47°35' W 122°21'0 0.0
2018-Apr-12 06:30N 47°35' W 122°21'0 0.0
2018-Apr-12 06:00N 47°35' W 122°21'0 0.0
2018-Apr-12 05:30N 47°35' W 122°21'0 0.0
2018-Apr-12 05:00N 47°35' W 122°21'0 0.0
2018-Apr-12 04:30N 47°35' W 122°21'0 0.0
2018-Apr-12 04:00N 47°35' W 122°21'0 0.0
2018-Apr-12 03:30N 47°35' W 122°21'0 0.0
2018-Apr-12 03:00N 47°35' W 122°21'0 0.0
2018-Apr-12 02:30N 47°35' W 122°21'0 0.0
2018-Apr-12 01:57N 47°35' W 122°21'0 0.0
2018-Apr-12 01:30N 47°35' W 122°21'0 0.0
2018-Apr-12 01:00N 47°35' W 122°21'0 0.0
2018-Apr-12 00:30N 47°35' W 122°21'0 0.0
2018-Apr-11 23:59N 47°35' W 122°21'0 0.0
2018-Apr-11 23:30N 47°35' W 122°21'0 0.0
2018-Apr-11 23:00N 47°35' W 122°21'0 0.0
2018-Apr-11 22:30N 47°35' W 122°21'0 0.1
2018-Apr-11 22:00N 47°35' W 122°21'0 0.0
2018-Apr-11 21:30N 47°35' W 122°21'0 0.1
2018-Apr-11 21:00N 47°35' W 122°21'0 0.1
2018-Apr-11 20:30N 47°35' W 122°21'0 0.8
2018-Apr-11 20:01N 47°36' W 122°21'3 5.6
2018-Apr-11 19:30N 47°37' W 122°25'3 6.3
2018-Apr-11 19:00N 47°39' W 122°28'4 7.8
2018-Apr-11 18:30N 47°43' W 122°27'4 7.6
2018-Apr-11 18:00N 47°47' W 122°27'4 8.2
2018-Apr-11 17:30N 47°51' W 122°28'4 8.1
2018-Apr-11 17:00N 47°55' W 122°30'18 6.4
2018-Apr-11 14:12N 48°09' W 122°45'1 6.3
2018-Apr-11 14:00N 48°10' W 122°47'4 6.2
2018-Apr-11 13:22N 48°14' W 122°49'4 8.3
2018-Apr-11 12:52N 48°18' W 122°47'  

Dump ship's entire track history